Salem, OR (97301)

5:29 PM PST on February 11, 2016 (GMT -0800)
Center & Cordon NE | | Change Station
CLOSE
Current Station
Personal Weather Station
Location: Salem, OR
Elevation: 210 ft
Nearby Weather Stations

Elev 210 ft 44.94 °N, 122.96 °W | Updated 7 seconds ago

Overcast
Overcast
53.9 °F
Feels Like 53.9 °F
N
0.0
Wind Variable Wind from NNE
Gusts 0.0 mph

Today
High -- | Low -- °F
--% Chance of Precip.
Yesterday
High -- | Low -- °F
Precip. -- in
Pressure 30.12 in
Visibility 7.0 miles
Clouds Mostly Cloudy 900 ft
Mostly Cloudy 5000 ft
Overcast 10000 ft
Dew Point 52 °F
Humidity 93%
Rainfall 0.11 in
Snow Depth Not available.
7:18 AM 5:33 PM
Waxing Crescent, 16% visible
METAR KSLE 120056Z 36004KT 7SM BKN009 BKN050 OVC100 13/11 A3012 RMK AO2 SLP198 T01280106
Pressure 30.12 in
Visibility 7.0 miles
Clouds Mostly Cloudy 900 ft
Mostly Cloudy 5000 ft
Overcast 10000 ft
Dew Point 52 °F
Humidity 93%
Rainfall 0.11 in
Snow Depth Not available.
7:18 AM 5:33 PM
Waxing Crescent, 16% visible
METAR KSLE 120056Z 36004KT 7SM BKN009 BKN050 OVC100 13/11 A3012 RMK AO2 SLP198 T01280106

10-Day Weather Forecast

Almanac

Astronomy

Feb. 11, 2016 Rise Set
Actual Time
Civil Twilight
Nautical Twilight
Astronomical Twilight
Moon
Length of Visible Light
Length of Day
Tomorrow will be .
, % of the Moon is Illuminated

Today's Extremes

State Highs State Lows

Community

WunderPhotos

Upload Photos

1,892,205 photos uploaded!

WunderBlog® & News

Nearby

Air Quality

  Air Quality AQ Index Pollutant
Not available.

Snow Depth

Station Depth Elevation

Earthquake Activity

City Distance Mag. Time & Date
Minimum magnitude displayed is 2.5.

Coastal Water Temperatures

Place Temperature

Stations

Nearby Weather Stations

Station Location Temp. Windchill Dew Point Humidity Wind Precip. Elev Updated Type
                   

Watches & Warnings

There are currently no watches in effect.